Time;durP1;ratioP1;P1;durP2;ratioP2;P2;SDS_P1;SDS_P2;PMS_P1;PMS_P2;Temp;Humidity;BMP_temperature;BMP_pressure;BME280_temperature;BME280_humidity;BME280_pressure;Samples;Min_cycle;Max_cycle;Signal;HPM_P1;HPM_P2
2024/01/03 00:01:17;;;;;;;12.00;8.05;;;;;;;9.25;75.13;101373.75;5088219;28;20026;-86
2024/01/03 00:03:43;;;;;;;13.30;8.32;;;;;;;9.26;75.06;101376.47;5068824;28;20056;-86
2024/01/03 00:06:08;;;;;;;10.77;7.60;;;;;;;9.17;74.55;101340.25;5098869;28;20594;-85
2024/01/03 00:08:38;;;;;;;12.00;7.85;;;;;;;9.11;74.88;101339.84;5087567;28;20127;-86
2024/01/03 00:11:04;;;;;;;11.90;7.70;;;;;;;9.19;74.27;101336.88;5084855;28;20490;-87
2024/01/03 00:15:59;;;;;;;12.40;7.60;;;;;;;9.41;74.52;101397.47;5074695;28;20485;-87
2024/01/03 00:18:36;;;;;;;10.07;6.75;;;;;;;9.43;74.34;101389.75;5069501;28;20038;-86
2024/01/03 00:21:03;;;;;;;10.93;7.30;;;;;;;9.40;74.42;101387.84;5102012;28;20063;-86
2024/01/03 00:23:37;;;;;;;11.13;7.20;;;;;;;9.31;74.34;101363.75;5089188;28;20027;-88
2024/01/03 00:26:03;;;;;;;10.80;7.40;;;;;;;9.08;74.06;101318.78;5088505;28;20507;-86
2024/01/03 00:28:29;;;;;;;11.70;6.90;;;;;;;9.27;74.35;101362.66;5085731;28;20024;-88
2024/01/03 00:30:56;;;;;;;9.80;6.97;;;;;;;9.10;74.30;101326.69;5074479;28;20050;-87
2024/01/03 00:33:21;;;;;;;;;;;;;;;9.42;74.21;101380.13;5068336;28;20485;-87
2024/01/03 00:35:47;;;;;;;11.98;7.43;;;;;;;9.10;74.44;101329.31;5081809;28;19919;-87
2024/01/03 00:38:13;;;;;;;9.35;6.70;;;;;;;9.08;74.35;101320.47;5077851;28;20052;-88
2024/01/03 00:40:53;;;;;;;10.70;6.68;;;;;;;9.26;74.23;101355.63;5090285;28;20028;-88
2024/01/03 00:43:19;;;;;;;9.63;6.88;;;;;;;9.12;74.29;101332.91;5088789;28;20032;-88
2024/01/03 00:45:46;;;;;;;9.82;7.07;;;;;;;9.25;74.49;101358.09;5075165;28;20082;-88
2024/01/03 00:48:11;;;;;;;9.55;6.50;;;;;;;9.20;74.04;101356.91;5079245;28;20047;-88
2024/01/03 00:50:37;;;;;;;10.57;6.95;;;;;;;9.25;74.75;101355.50;5079191;28;20025;-87
2024/01/03 00:53:03;;;;;;;8.80;6.43;;;;;;;9.03;74.83;101312.34;5092825;28;20028;-88
2024/01/03 00:55:29;;;;;;;9.63;6.60;;;;;;;9.12;74.35;101325.09;5090809;28;20069;-88
2024/01/03 00:57:55;;;;;;;8.52;6.40;;;;;;;9.21;74.58;101327.44;5088120;28;20043;-88
2024/01/03 01:00:21;;;;;;;9.10;6.28;;;;;;;9.03;74.22;101288.91;5071681;28;20654;-88
2024/01/03 01:02:48;;;;;;;9.32;6.20;;;;;;;9.17;74.82;101331.53;5081491;28;20028;-88
2024/01/03 01:05:14;;;;;;;9.93;7.00;;;;;;;9.00;75.06;101293.03;5078308;28;20174;-88
2024/01/03 01:07:39;;;;;;;9.23;6.43;;;;;;;9.26;74.46;101339.97;5092301;28;20759;-88
2024/01/03 01:10:05;;;;;;;9.82;6.35;;;;;;;9.23;74.49;101323.22;5073308;28;20050;-88
2024/01/03 01:12:31;;;;;;;9.27;6.47;;;;;;;9.14;74.15;101314.00;5093904;28;20028;-88
2024/01/03 01:14:59;;;;;;;9.00;6.28;;;;;;;9.08;74.02;101297.03;5075769;28;20036;-87
2024/01/03 01:17:25;;;;;;;8.68;6.30;;;;;;;9.17;74.35;101318.53;5090598;28;20104;-87
2024/01/03 01:19:52;;;;;;;;;;;;;;;9.32;74.08;101331.69;5080287;28;20024;-89
2024/01/03 01:22:19;;;;;;;8.27;5.97;;;;;;;9.25;74.40;101329.44;5075179;28;19960;-88
2024/01/03 01:24:45;;;;;;;9.45;6.18;;;;;;;8.81;74.86;101250.06;5088047;28;20031;-88
2024/01/03 01:27:10;;;;;;;8.93;6.22;;;;;;;8.94;74.41;101270.94;5085367;28;20032;-88
2024/01/03 01:29:36;;;;;;;8.45;6.13;;;;;;;9.20;74.89;101310.91;5071025;28;20039;-88
2024/01/03 01:32:02;;;;;;;8.70;6.13;;;;;;;9.20;74.79;101305.69;5085875;28;20035;-87
2024/01/03 01:34:28;;;;;;;8.77;6.05;;;;;;;8.78;73.81;101223.81;5081905;28;20033;-87
2024/01/03 01:36:53;;;;;;;9.15;6.25;;;;;;;9.14;74.05;101294.84;5061239;28;20115;-88
2024/01/03 01:39:19;;;;;;;8.05;6.05;;;;;;;8.81;74.29;101243.97;5065162;28;20031;-87
2024/01/03 01:41:45;;;;;;;9.55;6.03;;;;;;;9.07;74.48;101282.22;5103340;28;20509;-87
2024/01/03 01:44:10;;;;;;;7.85;5.55;;;;;;;9.03;74.36;101261.97;5082205;28;20028;-88
2024/01/03 01:46:37;;;;;;;8.25;5.90;;;;;;;8.96;74.06;101237.19;5073315;28;20028;-87
2024/01/03 01:49:08;;;;;;;11.35;6.10;;;;;;;9.03;74.41;101246.31;5089861;28;20032;-87
2024/01/03 01:51:35;;;;;;;8.32;5.70;;;;;;;9.10;74.42;101277.19;5091545;28;20028;-87
2024/01/03 01:54:02;;;;;;;9.05;5.93;;;;;;;9.16;74.25;101283.75;5064378;28;20059;-87
2024/01/03 01:56:28;;;;;;;8.68;6.05;;;;;;;8.98;74.43;101247.72;5078567;28;20032;-86
2024/01/03 01:58:55;;;;;;;8.32;5.90;;;;;;;8.92;74.22;101245.59;5088883;28;20036;-87
2024/01/03 02:01:22;;;;;;;8.27;5.82;;;;;;;8.75;74.10;101208.00;5091043;28;20103;-86
2024/01/03 02:03:49;;;;;;;;;;;;;;;9.20;74.23;101274.41;5084424;28;20031;-88
2024/01/03 02:06:15;;;;;;;8.25;6.00;;;;;;;9.08;74.13;101266.69;5080350;28;20324;-89
2024/01/03 02:08:41;;;;;;;8.90;5.97;;;;;;;9.15;74.44;101286.25;5091502;28;20056;-87
2024/01/03 02:11:07;;;;;;;9.18;6.20;;;;;;;9.17;73.91;101282.94;5089929;28;20056;-88
2024/01/03 02:13:33;;;;;;;8.93;6.20;;;;;;;9.06;73.82;101269.97;5073717;28;20115;-88
2024/01/03 02:15:59;;;;;;;8.20;6.10;;;;;;;8.99;73.49;101255.63;5074474;28;20499;-88
2024/01/03 02:18:26;;;;;;;7.85;5.55;;;;;;;8.95;73.98;101249.31;5074511;28;20039;-87
2024/01/03 02:20:56;;;;;;;8.95;5.75;;;;;;;9.12;73.83;101273.91;5091717;28;20102;-88
2024/01/03 02:23:23;;;;;;;7.50;5.60;;;;;;;8.91;73.62;101252.53;5087662;28;20493;-90
2024/01/03 02:25:49;;;;;;;8.57;5.95;;;;;;;8.82;74.23;101235.34;5092066;28;20020;-87
2024/01/03 02:28:16;;;;;;;8.30;6.13;;;;;;;8.92;73.70;101251.69;5083643;28;20039;-90
2024/01/03 02:30:44;;;;;;;9.15;5.85;;;;;;;9.06;73.78;101280.38;5070778;28;20101;-86
2024/01/03 02:33:11;;;;;;;8.38;5.63;;;;;;;8.87;73.57;101246.97;5077824;28;20032;-88
2024/01/03 02:35:37;;;;;;;9.30;6.07;;;;;;;8.87;74.29;101242.69;5074032;28;20160;-87
2024/01/03 02:38:03;;;;;;;8.73;5.85;;;;;;;8.80;73.53;101219.59;5077972;28;20516;-87
2024/01/03 02:40:29;;;;;;;8.20;5.97;;;;;;;9.10;73.93;101267.69;5073601;28;20032;-87
2024/01/03 02:42:55;;;;;;;9.32;6.20;;;;;;;8.93;74.09;101231.75;5089922;28;20036;-86
2024/01/03 02:45:20;;;;;;;9.27;6.35;;;;;;;9.08;73.66;101244.91;5083092;28;20047;-87
2024/01/03 02:47:46;;;;;;;11.07;6.22;;;;;;;8.80;74.05;101200.47;5084664;28;20409;-86
2024/01/03 02:50:12;;;;;;;9.30;6.32;;;;;;;8.89;74.07;101207.22;5061668;28;20109;-86
2024/01/03 02:52:38;;;;;;;9.15;5.97;;;;;;;8.81;73.97;101199.72;5082927;28;20028;-88
2024/01/03 02:55:04;;;;;;;9.43;6.32;;;;;;;8.86;73.86;101209.63;5086389;28;20108;-88
2024/01/03 02:57:29;;;;;;;9.90;5.95;;;;;;;8.85;73.75;101202.63;5071029;28;20024;-88
2024/01/03 02:59:55;;;;;;;8.95;5.85;;;;;;;8.79;74.03;101204.78;5084019;28;20036;-87
2024/01/03 03:02:21;;;;;;;9.18;5.93;;;;;;;8.70;73.86;101188.53;5102195;28;20031;-88
2024/01/03 03:04:46;;;;;;;9.02;5.85;;;;;;;8.96;74.29;101237.19;5078477;28;20078;-88
2024/01/03 03:07:13;;;;;;;10.95;6.53;;;;;;;8.56;73.92;101165.06;5091032;28;20425;-88
2024/01/03 03:09:40;;;;;;;9.07;6.03;;;;;;;8.82;73.97;101217.13;5089306;28;20040;-87
2024/01/03 03:12:06;;;;;;;9.77;6.28;;;;;;;8.46;73.92;101136.59;5089672;28;20051;-87
2024/01/03 03:14:32;;;;;;;8.38;5.78;;;;;;;8.63;74.29;101188.91;5080111;28;20282;-87
2024/01/03 03:16:58;;;;;;;9.10;6.07;;;;;;;8.73;74.30;101210.47;5063746;28;20078;-88
2024/01/03 03:19:25;;;;;;;;;;;;;;;9.01;74.09;101250.53;5084640;28;20451;-88
2024/01/03 03:21:50;;;;;;;9.40;5.67;;;;;;;9.00;73.78;101252.22;5089767;28;19916;-88
2024/01/03 03:24:17;;;;;;;8.38;5.65;;;;;;;8.59;74.24;101182.59;5081627;28;20111;-88
2024/01/03 03:26:43;;;;;;;8.63;5.75;;;;;;;8.62;74.01;101185.41;5096901;28;20113;-88
2024/01/03 03:29:08;;;;;;;8.35;6.03;;;;;;;8.82;74.16;101209.31;5076217;28;20477;-87
2024/01/03 03:31:34;;;;;;;9.68;5.72;;;;;;;8.88;73.92;101218.44;5079000;28;20029;-87
2024/01/03 03:33:59;;;;;;;8.25;5.60;;;;;;;8.92;74.20;101238.69;5079453;28;20032;-87
2024/01/03 03:36:25;;;;;;;9.02;6.22;;;;;;;8.89;73.64;101224.53;5083483;28;20045;-86
2024/01/03 03:38:51;;;;;;;9.23;5.68;;;;;;;8.72;73.65;101186.94;5079421;28;20040;-87
2024/01/03 03:41:19;;;;;;;7.65;5.13;;;;;;;8.64;73.63;101178.63;5076335;28;20048;-88
2024/01/03 03:43:45;;;;;;;8.85;5.47;;;;;;;8.82;73.77;101210.19;5078761;28;20085;-89
2024/01/03 03:46:12;;;;;;;8.70;5.60;;;;;;;8.94;74.09;101220.56;5088255;28;20028;-88
2024/01/03 03:48:37;;;;;;;9.93;5.85;;;;;;;8.75;73.62;101179.34;5082357;28;20574;-89
2024/01/03 03:51:04;;;;;;;9.07;5.85;;;;;;;8.59;73.99;101151.34;5075752;28;20028;-88
2024/01/03 03:53:29;;;;;;;;;;;;;;;9.00;73.59;101204.47;5083044;28;20032;-88
2024/01/03 03:55:55;;;;;;;8.95;5.57;;;;;;;8.88;73.93;101197.59;5078779;28;19912;-87
2024/01/03 03:58:23;;;;;;;9.82;6.18;;;;;;;8.64;74.42;101150.00;5084312;28;20031;-88
2024/01/03 04:00:48;;;;;;;9.60;5.80;;;;;;;8.73;73.90;101154.91;5090047;28;20115;-88
2024/01/03 04:03:14;;;;;;;8.25;5.28;;;;;;;8.71;74.06;101154.78;5074235;28;20042;-89
2024/01/03 04:05:40;;;;;;;8.45;5.75;;;;;;;8.46;74.03;101118.38;5069289;28;20117;-89
2024/01/03 04:08:06;;;;;;;10.13;6.00;;;;;;;8.90;74.07;101190.78;5086861;28;20044;-89
2024/01/03 04:10:32;;;;;;;9.85;6.00;;;;;;;8.58;74.02;101135.66;5072787;28;20047;-89
2024/01/03 04:12:57;;;;;;;11.32;6.90;;;;;;;8.52;73.91;101137.03;5084351;28;20089;-88
2024/01/03 04:15:24;;;;;;;13.68;7.65;;;;;;;8.88;73.74;101207.13;5090936;28;20481;-90
2024/01/03 04:17:51;;;;;;;11.88;7.05;;;;;;;8.52;73.87;101151.75;5082268;28;20032;-89
2024/01/03 04:20:18;;;;;;;10.13;6.53;;;;;;;8.45;73.63;101126.13;5088063;28;20040;-89
2024/01/03 04:22:44;;;;;;;;;;;;;;;8.87;73.93;101211.44;5089481;28;20024;-90
2024/01/03 04:25:10;;;;;;;11.02;6.43;;;;;;;8.37;73.76;101133.34;5079542;28;19959;-89
2024/01/03 04:27:37;;;;;;;12.18;7.40;;;;;;;8.63;73.39;101173.31;5093212;28;20039;-89
2024/01/03 04:30:04;;;;;;;9.95;6.45;;;;;;;8.30;73.53;101108.63;5059448;28;20062;-88
2024/01/03 04:32:31;;;;;;;10.95;6.75;;;;;;;8.63;73.57;101157.69;5065229;28;20089;-90
2024/01/03 04:34:57;;;;;;;10.38;6.55;;;;;;;8.48;73.54;101136.72;5076713;28;20482;-90
2024/01/03 04:37:28;;;;;;;11.18;6.47;;;;;;;8.70;73.47;101168.63;5072897;28;20106;-90
2024/01/03 04:39:54;;;;;;;10.80;6.30;;;;;;;8.55;73.43;101141.53;5090944;28;20078;-89
2024/01/03 04:42:23;;;;;;;11.90;6.95;;;;;;;8.71;73.56;101167.81;5090658;28;20502;-90
2024/01/03 04:44:49;;;;;;;10.43;6.90;;;;;;;8.73;73.64;101180.94;5073401;28;20029;-90
2024/01/03 04:47:15;;;;;;;11.55;7.05;;;;;;;8.56;74.01;101154.66;5078747;28;20024;-90
2024/01/03 04:49:40;;;;;;;11.45;6.97;;;;;;;8.61;73.48;101162.78;5076135;28;20032;-90
2024/01/03 04:52:06;;;;;;;10.63;6.00;;;;;;;8.55;73.92;101149.34;5091942;28;20024;-89
2024/01/03 04:54:33;;;;;;;10.57;6.60;;;;;;;8.45;74.17;101136.53;5097447;28;20032;-87
2024/01/03 04:56:58;;;;;;;10.27;6.07;;;;;;;8.62;74.32;101171.50;5088748;28;20029;-89
2024/01/03 04:59:24;;;;;;;10.70;7.05;;;;;;;8.64;74.09;101177.72;5083537;28;20032;-89
2024/01/03 05:01:50;;;;;;;10.88;7.00;;;;;;;8.70;73.86;101170.31;5084956;28;20482;-88
2024/01/03 05:04:15;;;;;;;11.18;6.72;;;;;;;8.55;74.21;101160.69;5077949;28;20020;-88
2024/01/03 05:06:42;;;;;;;10.30;6.43;;;;;;;8.46;74.44;101141.81;5089645;28;20043;-89
2024/01/03 05:09:08;;;;;;;10.82;6.90;;;;;;;8.53;74.01;101136.25;5088359;28;20016;-88
2024/01/03 05:11:33;;;;;;;10.35;6.60;;;;;;;8.65;74.48;101169.09;5104327;28;20421;-88
2024/01/03 05:13:59;;;;;;;10.60;6.78;;;;;;;8.39;74.46;101138.66;5073260;28;20123;-88
2024/01/03 05:16:25;;;;;;;13.65;7.93;;;;;;;8.41;74.22;101135.41;5085560;28;20108;-88
2024/01/03 05:18:51;;;;;;;12.50;7.88;;;;;;;8.59;74.26;101169.56;5072335;28;20123;-89
2024/01/03 05:21:16;;;;;;;12.32;7.57;;;;;;;8.35;74.78;101129.75;5070292;28;20028;-88
2024/01/03 05:23:42;;;;;;;12.75;7.82;;;;;;;8.42;74.31;101150.19;5082640;28;20037;-88
2024/01/03 05:26:08;;;;;;;12.68;7.82;;;;;;;8.45;74.29;101154.75;5064691;28;20039;-91
2024/01/03 05:28:33;;;;;;;13.93;8.38;;;;;;;8.61;74.26;101190.50;5084396;28;20036;-87
2024/01/03 05:30:59;;;;;;;13.77;7.97;;;;;;;8.39;73.94;101155.19;5085535;28;20050;-87
2024/01/03 05:33:25;;;;;;;11.65;7.13;;;;;;;8.32;74.18;101140.84;5085876;28;20040;-87
2024/01/03 05:35:51;;;;;;;12.63;7.03;;;;;;;8.26;73.91;101104.00;5070222;28;20032;-87
2024/01/03 05:38:17;;;;;;;12.90;7.13;;;;;;;8.64;74.41;101178.63;5086450;28;20051;-86
2024/01/03 05:40:43;;;;;;;14.40;7.93;;;;;;;8.31;74.05;101122.53;5080816;28;20510;-87
2024/01/03 05:43:11;;;;;;;13.40;8.15;;;;;;;8.74;74.14;101183.66;5069670;28;20043;-87
2024/01/03 05:45:36;;;;;;;12.90;7.97;;;;;;;8.44;74.42;101134.69;5087178;28;20024;-87
2024/01/03 05:48:02;;;;;;;14.10;8.27;;;;;;;8.59;74.67;101160.88;5078576;28;20043;-89
2024/01/03 05:50:28;;;;;;;14.65;8.35;;;;;;;8.52;74.50;101150.03;5088503;28;20040;-88
2024/01/03 05:52:54;;;;;;;13.25;8.23;;;;;;;8.34;74.83;101126.25;5091443;28;20077;-87
2024/01/03 05:55:20;;;;;;;15.02;8.43;;;;;;;8.54;74.67;101168.38;5080724;28;20519;-87
2024/01/03 05:57:45;;;;;;;14.65;8.23;;;;;;;8.39;74.58;101130.88;5083944;28;20032;-86
2024/01/03 06:00:12;;;;;;;13.82;8.60;;;;;;;8.49;74.77;101142.03;5079580;28;20054;-88
2024/01/03 06:02:39;;;;;;;;;;;;;;;8.76;74.08;101173.31;5076464;28;20111;-88
2024/01/03 06:05:05;;;;;;;;;;;;;;;8.69;74.67;101166.81;5115130;27;19920;-88
2024/01/03 06:07:31;;;;;;;12.38;7.80;;;;;;;8.74;74.45;101168.03;5072706;28;19916;-89
2024/01/03 06:09:57;;;;;;;13.95;8.55;;;;;;;8.68;74.50;101165.00;5080046;28;20402;-87
2024/01/03 06:12:23;;;;;;;11.40;7.60;;;;;;;8.61;74.52;101161.88;5087071;28;20066;-87
2024/01/03 06:14:49;;;;;;;13.77;8.35;;;;;;;8.14;74.56;101088.44;5086050;28;20020;-85
2024/01/03 06:17:15;;;;;;;13.35;7.97;;;;;;;8.57;74.96;101160.75;5087157;28;20035;-86
2024/01/03 06:19:40;;;;;;;13.43;8.73;;;;;;;8.54;74.75;101153.66;5080730;28;20120;-86
2024/01/03 06:22:06;;;;;;;12.48;7.72;;;;;;;8.51;75.06;101150.84;5082294;28;20032;-88
2024/01/03 06:24:32;;;;;;;14.48;8.50;;;;;;;8.43;74.72;101133.81;5077612;28;20398;-86
2024/01/03 06:26:58;;;;;;;14.50;8.82;;;;;;;8.57;74.80;101155.56;5071054;28;20036;-84
2024/01/03 06:29:23;;;;;;;15.30;9.15;;;;;;;8.10;74.88;101082.94;5080403;28;20158;-86
2024/01/03 06:31:49;;;;;;;14.27;8.85;;;;;;;8.18;74.83;101097.38;5085355;28;20035;-86
2024/01/03 06:34:15;;;;;;;16.60;8.93;;;;;;;8.42;74.13;101131.09;5084062;28;20040;-86
2024/01/03 06:36:40;;;;;;;13.48;8.63;;;;;;;8.67;74.63;101168.41;5080453;28;20044;-86
2024/01/03 06:39:07;;;;;;;14.73;8.57;;;;;;;8.47;74.69;101134.94;5085326;28;20039;-87
2024/01/03 06:41:33;;;;;;;13.65;8.30;;;;;;;8.54;74.35;101153.66;5085125;28;20413;-87
2024/01/03 06:43:58;;;;;;;12.85;8.18;;;;;;;8.35;74.77;101107.22;5083350;28;20474;-87
2024/01/03 06:46:27;;;;;;;14.05;8.70;;;;;;;8.32;74.63;101111.34;5081302;28;20032;-86
2024/01/03 06:48:56;;;;;;;12.70;8.20;;;;;;;8.45;74.55;101127.00;5082509;28;20028;-86
2024/01/03 06:51:23;;;;;;;16.25;9.27;;;;;;;8.50;74.42;101122.09;5074753;28;20056;-86
2024/01/03 06:53:48;;;;;;;;;;;;;;;8.63;74.59;101140.34;5077378;28;20032;-86
2024/01/03 06:56:19;;;;;;;17.40;9.35;;;;;;;8.36;74.64;101110.75;5078939;28;19916;-86
2024/01/03 06:58:45;;;;;;;14.52;9.07;;;;;;;8.39;74.60;101116.16;5070625;28;20803;-86
2024/01/03 07:01:11;;;;;;;15.02;8.80;;;;;;;8.38;74.70;101103.03;5080107;28;20040;-85
2024/01/03 07:03:37;;;;;;;;;;;;;;;8.63;74.43;101144.66;5079311;28;20029;-86
2024/01/03 07:06:03;;;;;;;16.33;8.95;;;;;;;8.58;74.71;101144.34;5078624;28;19920;-86
2024/01/03 07:08:28;;;;;;;15.70;9.60;;;;;;;8.48;74.56;101118.50;5080137;28;20035;-87
2024/01/03 07:10:55;;;;;;;17.35;9.38;;;;;;;8.58;74.47;101136.56;5100562;28;20036;-86
2024/01/03 07:13:21;;;;;;;14.95;8.55;;;;;;;8.49;74.68;101115.13;5084377;28;20032;-86
2024/01/03 07:15:47;;;;;;;16.50;9.70;;;;;;;8.51;74.80;101111.81;5079514;28;20728;-86
2024/01/03 07:18:13;;;;;;;17.65;9.98;;;;;;;8.06;74.73;101041.91;5085113;28;20032;-86
2024/01/03 07:20:39;;;;;;;18.48;10.65;;;;;;;8.58;74.53;101143.47;5081961;28;20028;-86
2024/01/03 07:23:04;;;;;;;16.85;9.80;;;;;;;8.60;74.60;101152.28;5084207;28;20387;-85
2024/01/03 07:25:30;;;;;;;18.52;9.57;;;;;;;8.52;74.71;101120.50;5092481;28;20029;-85
2024/01/03 07:27:56;;;;;;;16.13;9.48;;;;;;;8.53;74.47;101114.53;5088178;28;20080;-84
2024/01/03 07:30:25;;;;;;;17.73;10.18;;;;;;;8.27;74.32;101078.88;5082823;28;20032;-85
2024/01/03 07:32:52;;;;;;;19.52;10.70;;;;;;;8.47;74.32;101125.41;5079153;28;20111;-83
2024/01/03 07:35:18;;;;;;;17.20;9.40;;;;;;;8.44;74.72;101121.69;5088487;28;20824;-86
2024/01/03 07:37:44;;;;;;;20.20;11.15;;;;;;;8.48;74.98;101110.69;5084000;28;20044;-85
2024/01/03 07:40:10;;;;;;;20.35;11.05;;;;;;;8.54;74.72;101101.59;5070912;28;20119;-85
2024/01/03 07:42:36;;;;;;;19.90;10.77;;;;;;;8.47;74.93;101098.50;5080103;28;20024;-83
2024/01/03 07:45:01;;;;;;;19.55;10.48;;;;;;;8.62;74.63;101117.75;5079396;28;20033;-89
2024/01/03 07:47:28;;;;;;;18.83;10.43;;;;;;;8.43;74.72;101081.75;5077818;28;20031;-87
2024/01/03 07:49:53;;;;;;;;;;;;;;;8.66;74.94;101121.47;5086832;28;20115;-88
2024/01/03 07:52:19;;;;;;;20.45;10.80;;;;;;;8.28;74.60;101060.78;5085247;28;20065;-88
2024/01/03 07:54:44;;;;;;;19.80;11.15;;;;;;;8.66;74.61;101129.28;5082637;28;20157;-88
2024/01/03 07:57:10;;;;;;;21.90;12.10;;;;;;;8.50;75.12;101099.56;5062477;28;20055;-87
2024/01/03 07:59:40;;;;;;;23.40;11.75;;;;;;;8.41;74.79;101087.66;5071848;28;20404;-89
2024/01/03 08:02:07;;;;;;;25.00;13.50;;;;;;;8.46;74.89;101096.66;5081014;28;20032;-90
2024/01/03 08:04:33;;;;;;;21.02;11.88;;;;;;;8.32;75.37;101106.13;5073802;28;20033;-87
2024/01/03 08:06:59;;;;;;;19.05;11.65;;;;;;;8.31;74.93;101088.69;5086782;28;20060;-88
2024/01/03 08:09:25;;;;;;;22.50;12.20;;;;;;;8.21;75.49;101083.66;5066551;28;20036;-88
2024/01/03 08:11:51;;;;;;;22.33;12.48;;;;;;;8.21;75.44;101086.25;5081161;28;20020;-88
2024/01/03 08:14:16;;;;;;;22.10;12.10;;;;;;;8.31;75.52;101101.69;5075255;28;20028;-87
2024/01/03 08:16:43;;;;;;;20.42;11.45;;;;;;;8.20;75.97;101084.47;5087007;28;20028;-89
2024/01/03 08:19:10;;;;;;;19.65;10.70;;;;;;;8.36;76.07;101102.94;5067413;28;20087;-89
2024/01/03 08:21:35;;;;;;;20.75;11.18;;;;;;;8.23;75.98;101087.25;5082228;28;20124;-88
2024/01/03 08:24:01;;;;;;;21.25;11.52;;;;;;;8.38;75.96;101113.44;5078903;28;20116;-88
2024/01/03 08:26:27;;;;;;;20.90;10.85;;;;;;;8.20;76.59;101079.28;5063199;28;20032;-88
2024/01/03 08:28:53;;;;;;;19.60;10.73;;;;;;;8.18;76.26;101089.56;5082275;28;20036;-88
2024/01/03 08:31:18;;;;;;;18.52;10.80;;;;;;;8.15;76.04;101090.25;5084748;28;20154;-88
2024/01/03 08:33:46;;;;;;;19.60;11.00;;;;;;;8.42;76.38;101128.50;5068811;28;20035;-88
2024/01/03 08:36:13;;;;;;;19.30;11.13;;;;;;;8.32;76.62;101108.72;5069103;28;20032;-88
2024/01/03 08:38:39;;;;;;;19.40;11.05;;;;;;;7.92;76.52;101036.66;5079134;28;20058;-87
2024/01/03 08:41:17;;;;;;;;;;;;;;;8.47;76.65;101119.31;5085791;28;20028;-89
2024/01/03 08:43:44;;;;;;;19.80;11.15;;;;;;;8.42;76.65;101105.97;5080082;28;20369;-88
2024/01/03 08:46:10;;;;;;;20.25;10.60;;;;;;;8.31;76.78;101081.78;5084164;28;20028;-88
2024/01/03 08:48:37;;;;;;;23.20;12.38;;;;;;;8.33;76.58;101087.09;5082806;28;20032;-88
2024/01/03 08:51:03;;;;;;;21.55;11.73;;;;;;;8.02;76.94;101026.88;5070383;28;20048;-89
2024/01/03 08:53:28;;;;;;;19.83;11.38;;;;;;;8.47;76.67;101086.38;5074911;28;20080;-89
2024/01/03 08:55:54;;;;;;;19.35;10.88;;;;;;;8.46;76.93;101076.75;5075723;28;20032;-88
2024/01/03 08:58:20;;;;;;;18.60;10.98;;;;;;;8.41;76.56;101048.63;5063671;28;20041;-89
2024/01/03 09:00:45;;;;;;;19.17;11.32;;;;;;;8.29;77.24;101028.75;5070558;28;20031;-90
2024/01/03 09:03:11;;;;;;;18.48;10.80;;;;;;;8.38;77.46;101049.25;5057052;28;20032;-88
2024/01/03 09:05:37;;;;;;;18.98;10.93;;;;;;;8.47;77.06;101057.75;5070816;28;20032;-89
2024/01/03 09:08:03;;;;;;;19.15;10.98;;;;;;;8.27;77.46;101022.53;5067683;28;20036;-89
2024/01/03 09:10:35;;;;;;;19.83;11.02;;;;;;;8.40;77.09;101041.56;5088704;28;20032;-89
2024/01/03 09:13:01;;;;;;;17.58;10.30;;;;;;;8.12;77.53;100987.69;5072315;28;20132;-89
2024/01/03 09:15:26;;;;;;;18.95;10.32;;;;;;;8.23;77.33;100999.72;5067621;28;20082;-89
2024/01/03 09:17:52;;;;;;;17.13;9.60;;;;;;;8.30;77.46;100999.34;5072762;28;20031;-90
2024/01/03 09:20:18;;;;;;;15.48;9.10;;;;;;;8.13;77.43;100958.31;5070781;28;20032;-90
2024/01/03 09:22:44;;;;;;;17.27;9.95;;;;;;;7.88;77.01;100914.16;5070500;28;20601;-89
2024/01/03 09:25:10;;;;;;;16.55;9.52;;;;;;;8.44;77.58;101013.28;5084752;28;20043;-88
2024/01/03 09:27:36;;;;;;;17.55;10.10;;;;;;;8.29;77.49;100983.63;5087436;28;20036;-88
2024/01/03 09:30:02;;;;;;;18.13;10.30;;;;;;;8.36;77.58;100986.75;5087386;28;20115;-88
2024/01/03 09:32:28;;;;;;;16.83;9.88;;;;;;;8.36;77.62;100989.34;5088007;28;20097;-88
2024/01/03 09:34:53;;;;;;;18.23;10.52;;;;;;;8.61;77.76;101031.72;5071814;28;20530;-87
2024/01/03 09:37:19;;;;;;;18.80;10.50;;;;;;;8.48;77.59;101001.38;5084468;28;20131;-87
2024/01/03 09:39:45;;;;;;;16.98;10.18;;;;;;;8.57;78.01;101012.38;5083175;28;20040;-89
2024/01/03 09:42:11;;;;;;;14.80;9.30;;;;;;;8.43;78.03;100985.47;5085041;28;20027;-89
2024/01/03 09:44:37;;;;;;;15.48;10.07;;;;;;;8.18;77.56;100919.59;5074225;28;20043;-88
2024/01/03 09:47:03;;;;;;;15.60;9.60;;;;;;;8.34;77.91;100951.00;5070347;28;20511;-88
2024/01/03 09:49:31;;;;;;;16.58;9.35;;;;;;;8.63;77.73;100996.28;5067381;28;20040;-94
2024/01/03 09:51:58;;;;;;;17.42;9.85;;;;;;;8.65;77.63;100992.06;5085304;28;20043;-88
2024/01/03 09:54:25;;;;;;;15.63;9.57;;;;;;;8.43;77.62;100950.75;5091393;28;20037;-90
2024/01/03 09:56:52;;;;;;;16.13;9.15;;;;;;;8.49;77.56;100940.75;5087470;28;20021;-88
2024/01/03 09:59:19;;;;;;;16.33;9.07;;;;;;;8.35;77.30;100919.88;5097727;28;20062;-91
2024/01/03 10:01:56;;;;;;;15.43;8.63;;;;;;;8.63;77.61;100957.22;5087606;28;20103;-88
2024/01/03 10:04:22;;;;;;;15.45;9.05;;;;;;;8.46;77.39;100919.72;5090051;28;20618;-89
2024/01/03 10:06:54;;;;;;;;;;;;;;;8.80;77.65;100964.41;5065464;28;20027;-88
2024/01/03 10:09:20;;;;;;;13.40;8.02;;;;;;;8.68;78.06;100948.03;5078220;28;20355;-88
2024/01/03 10:11:46;;;;;;;14.68;8.52;;;;;;;8.63;77.81;100926.00;5080176;28;20043;-88
2024/01/03 10:14:22;;;;;;;15.55;8.77;;;;;;;8.83;77.96;100946.41;5089616;28;20043;-87
2024/01/03 10:16:48;;;;;;;14.52;8.77;;;;;;;8.80;77.75;100935.78;5062905;28;20102;-88
2024/01/03 10:19:22;;;;;;;14.85;8.48;;;;;;;8.79;78.15;100927.91;5081168;28;20037;-88
2024/01/03 10:21:53;;;;;;;11.93;7.65;;;;;;;8.86;77.77;100935.28;5088909;28;20086;-89
2024/01/03 10:24:21;;;;;;;14.30;8.68;;;;;;;8.85;78.21;100931.78;5073948;28;20047;-88
2024/01/03 10:26:46;;;;;;;13.07;8.15;;;;;;;8.84;78.04;100913.44;5081988;28;20112;-87
2024/01/03 10:29:14;;;;;;;12.13;7.90;;;;;;;8.87;77.95;100916.22;5091215;28;20119;-88
2024/01/03 10:31:41;;;;;;;15.05;8.68;;;;;;;8.77;78.48;100892.22;5088792;28;20497;-88
2024/01/03 10:34:12;;;;;;;13.20;8.23;;;;;;;8.69;78.15;100880.44;5077538;28;20024;-87
2024/01/03 10:36:39;;;;;;;11.98;7.72;;;;;;;8.89;78.30;100907.72;5083020;28;20036;-88
2024/01/03 10:39:05;;;;;;;13.13;7.80;;;;;;;8.80;78.51;100895.84;5072183;28;20085;-88
2024/01/03 10:41:31;;;;;;;12.30;7.57;;;;;;;8.94;78.26;100910.63;5073394;28;20493;-88
2024/01/03 10:44:00;;;;;;;14.35;7.82;;;;;;;8.76;78.82;100873.91;5089650;28;20035;-88
2024/01/03 10:46:26;;;;;;;12.68;7.55;;;;;;;8.96;78.18;100894.28;5077149;28;20032;-88
2024/01/03 10:48:53;;;;;;;12.07;7.35;;;;;;;8.69;78.41;100846.59;5085689;28;20042;-88
2024/01/03 10:51:22;;;;;;;11.95;7.32;;;;;;;8.68;78.33;100842.19;5083135;28;20059;-87
2024/01/03 10:53:51;;;;;;;13.80;7.85;;;;;;;8.56;78.92;100816.28;5095229;28;20486;-88
2024/01/03 10:56:17;;;;;;;13.32;7.22;;;;;;;8.80;78.65;100846.34;5086677;28;20025;-87
2024/01/03 10:58:42;;;;;;;12.07;6.88;;;;;;;8.91;78.65;100848.84;5084600;28;20043;-88
2024/01/03 11:01:29;;;;;;;12.05;7.20;;;;;;;9.11;78.63;100870.88;5086878;28;20037;-88
2024/01/03 11:04:30;;;;;;;13.65;7.25;;;;;;;9.07;79.14;100871.50;5078556;28;20040;-88
2024/01/03 11:07:05;;;;;;;11.77;6.75;;;;;;;9.11;78.91;100883.91;5102331;28;20111;-88
2024/01/03 11:09:31;;;;;;;10.88;7.10;;;;;;;9.14;78.48;100875.38;5101296;28;20089;-89
2024/01/03 11:12:07;;;;;;;13.25;7.10;;;;;;;9.10;78.86;100861.28;5070573;28;20452;-88
2024/01/03 11:14:33;;;;;;;11.60;6.90;;;;;;;9.10;78.84;100843.06;5077809;28;20443;-88
2024/01/03 11:17:00;;;;;;;13.32;7.40;;;;;;;9.24;78.59;100862.09;5087675;28;20028;-88
2024/01/03 11:19:28;;;;;;;10.88;6.78;;;;;;;9.00;78.72;100829.38;5067772;28;20043;-87
2024/01/03 11:21:54;;;;;;;14.55;6.95;;;;;;;9.10;78.52;100850.88;5086089;28;20764;-87
2024/01/03 11:24:19;;;;;;;13.20;7.00;;;;;;;9.23;78.76;100868.16;5083114;28;20099;-87
2024/01/03 11:26:54;;;;;;;13.10;7.10;;;;;;;9.24;79.06;100869.94;5069323;28;20052;-87
2024/01/03 11:29:35;;;;;;;13.85;7.35;;;;;;;9.26;78.88;100867.41;5088665;28;20031;-86